Connexion S'enregistrer

Connexion à votre compte

Identifiant
Mot de passe
Maintenir la connexion active sur ce site

Créer un compte

Pour valider ce formulaire, vous devez remplir tous les champs.
Nom
Identifiant
Mot de passe
Répétez le mot de passe
Adresse e-mail
Répétez l'adresse e-mail

METAR/TAF de Chambéry

[source: ADDS]
METAR
LFLB 170400Z AUTO 12002KT CAVOK 12/11 Q1018 NOSIG =
TAF LFLB 162300Z 1700/1724 33008KT CAVOK PROB30 TEMPO 1703/1706 BKN020
TAF
TAF LFLB 162300Z 1700/1724 33008KT CAVOK PROB30 TEMPO 1703/1706 BKN020 =
SR / SS: 03:46 / 19:28 UTC (Lever/Coucher du soleil le 2019-06-17)

 

Webcam de l'Aéroclub - Parking Lima et SW (réactualisation : 5min)

Cliquer ici pour une animation sur les 3 dernières heures / Cliquer sur l'image pour l'agrandir dans une nouvelle fenêtre

 

Webcam de l'Aéroclub - Manche à air et WA (réactualisation : 5min)

Cliquer ici pour une animation sur les 3 dernières heures / Cliquer sur l'image pour l'agrandir dans une nouvelle fenêtre

 

JSN Boot template designed by JoomlaShine.com